sensor_id;sensor_type;location;lat;lon;timestamp;temperature;humidity
2825;DHT22;1420;51.324;12.344;2022-12-07T00:00:16;2.90;99.90
2825;DHT22;1420;51.324;12.344;2022-12-07T00:02:43;2.80;99.90
2825;DHT22;1420;51.324;12.344;2022-12-07T00:05:10;2.80;99.90
2825;DHT22;1420;51.324;12.344;2022-12-07T00:07:37;2.70;99.90
2825;DHT22;1420;51.324;12.344;2022-12-07T00:10:06;2.80;99.90
2825;DHT22;1420;51.324;12.344;2022-12-07T00:12:34;2.80;99.90
2825;DHT22;1420;51.324;12.344;2022-12-07T00:15:02;2.70;99.90
2825;DHT22;1420;51.324;12.344;2022-12-07T00:17:29;2.70;99.90
2825;DHT22;1420;51.324;12.344;2022-12-07T00:19:56;2.60;99.90
2825;DHT22;1420;51.324;12.344;2022-12-07T00:22:24;2.50;99.90
2825;DHT22;1420;51.324;12.344;2022-12-07T00:24:51;2.50;99.90
2825;DHT22;1420;51.324;12.344;2022-12-07T00:27:18;2.60;99.90
2825;DHT22;1420;51.324;12.344;2022-12-07T00:29:46;2.50;99.90
2825;DHT22;1420;51.324;12.344;2022-12-07T00:32:14;2.50;99.90
2825;DHT22;1420;51.324;12.344;2022-12-07T00:34:41;2.40;99.90
2825;DHT22;1420;51.324;12.344;2022-12-07T00:37:09;2.30;99.90
2825;DHT22;1420;51.324;12.344;2022-12-07T00:39:36;2.20;99.90
2825;DHT22;1420;51.324;12.344;2022-12-07T00:42:04;2.20;99.90
2825;DHT22;1420;51.324;12.344;2022-12-07T00:44:31;2.10;99.90
2825;DHT22;1420;51.324;12.344;2022-12-07T00:46:58;2.00;99.90
2825;DHT22;1420;51.324;12.344;2022-12-07T00:49:25;1.90;99.90
2825;DHT22;1420;51.324;12.344;2022-12-07T00:51:53;1.80;99.90
2825;DHT22;1420;51.324;12.344;2022-12-07T00:54:21;1.70;99.90
2825;DHT22;1420;51.324;12.344;2022-12-07T00:56:48;1.70;99.90
2825;DHT22;1420;51.324;12.344;2022-12-07T00:59:15;1.70;99.90
2825;DHT22;1420;51.324;12.344;2022-12-07T01:01:42;1.60;99.90
2825;DHT22;1420;51.324;12.344;2022-12-07T01:04:10;1.60;99.90
2825;DHT22;1420;51.324;12.344;2022-12-07T01:06:38;1.50;99.90
2825;DHT22;1420;51.324;12.344;2022-12-07T01:09:05;1.50;99.90
2825;DHT22;1420;51.324;12.344;2022-12-07T01:11:33;1.50;99.90
2825;DHT22;1420;51.324;12.344;2022-12-07T01:14:00;1.50;99.90
2825;DHT22;1420;51.324;12.344;2022-12-07T01:16:28;1.40;99.90
2825;DHT22;1420;51.324;12.344;2022-12-07T01:18:55;1.40;99.90
2825;DHT22;1420;51.324;12.344;2022-12-07T01:21:26;1.40;99.90
2825;DHT22;1420;51.324;12.344;2022-12-07T01:23:53;1.40;99.90
2825;DHT22;1420;51.324;12.344;2022-12-07T01:26:21;1.20;99.90
2825;DHT22;1420;51.324;12.344;2022-12-07T01:28:48;1.20;99.90
2825;DHT22;1420;51.324;12.344;2022-12-07T01:31:18;1.20;99.90
2825;DHT22;1420;51.324;12.344;2022-12-07T01:33:45;1.10;99.90
2825;DHT22;1420;51.324;12.344;2022-12-07T01:36:16;1.20;99.90
2825;DHT22;1420;51.324;12.344;2022-12-07T01:38:42;1.20;99.90
2825;DHT22;1420;51.324;12.344;2022-12-07T01:41:09;1.20;99.90
2825;DHT22;1420;51.324;12.344;2022-12-07T01:43:36;1.10;99.90
2825;DHT22;1420;51.324;12.344;2022-12-07T01:46:03;1.10;99.90
2825;DHT22;1420;51.324;12.344;2022-12-07T01:48:33;1.20;99.90
2825;DHT22;1420;51.324;12.344;2022-12-07T01:51:00;1.10;99.90
2825;DHT22;1420;51.324;12.344;2022-12-07T01:53:26;1.10;99.90
2825;DHT22;1420;51.324;12.344;2022-12-07T01:55:53;1.10;99.90
2825;DHT22;1420;51.324;12.344;2022-12-07T01:58:20;1.10;99.90
2825;DHT22;1420;51.324;12.344;2022-12-07T02:00:47;0.90;99.90
2825;DHT22;1420;51.324;12.344;2022-12-07T02:03:27;0.90;99.90
2825;DHT22;1420;51.324;12.344;2022-12-07T02:05:52;0.90;99.90
2825;DHT22;1420;51.324;12.344;2022-12-07T02:08:19;0.90;99.90
2825;DHT22;1420;51.324;12.344;2022-12-07T02:10:46;0.80;99.90
2825;DHT22;1420;51.324;12.344;2022-12-07T02:13:18;0.70;99.90
2825;DHT22;1420;51.324;12.344;2022-12-07T02:15:51;0.70;99.90
2825;DHT22;1420;51.324;12.344;2022-12-07T02:18:22;0.80;99.90
2825;DHT22;1420;51.324;12.344;2022-12-07T02:20:51;0.60;99.90
2825;DHT22;1420;51.324;12.344;2022-12-07T02:23:38;0.60;99.90
2825;DHT22;1420;51.324;12.344;2022-12-07T02:26:14;0.70;99.90
2825;DHT22;1420;51.324;12.344;2022-12-07T02:28:36;0.70;99.90
2825;DHT22;1420;51.324;12.344;2022-12-07T02:31:06;0.80;99.90
2825;DHT22;1420;51.324;12.344;2022-12-07T02:33:35;0.70;99.90
2825;DHT22;1420;51.324;12.344;2022-12-07T02:36:02;0.80;99.90
2825;DHT22;1420;51.324;12.344;2022-12-07T02:38:39;0.80;99.90
2825;DHT22;1420;51.324;12.344;2022-12-07T02:41:12;0.70;99.90
2825;DHT22;1420;51.324;12.344;2022-12-07T02:43:39;0.60;99.90
2825;DHT22;1420;51.324;12.344;2022-12-07T02:46:08;0.70;99.90
2825;DHT22;1420;51.324;12.344;2022-12-07T02:48:34;0.70;99.90
2825;DHT22;1420;51.324;12.344;2022-12-07T02:51:01;0.80;99.90
2825;DHT22;1420;51.324;12.344;2022-12-07T02:53:35;0.70;99.90
2825;DHT22;1420;51.324;12.344;2022-12-07T02:56:08;0.70;99.90
2825;DHT22;1420;51.324;12.344;2022-12-07T03:01:11;0.70;99.90
2825;DHT22;1420;51.324;12.344;2022-12-07T03:03:36;0.70;99.90
2825;DHT22;1420;51.324;12.344;2022-12-07T03:06:09;0.70;99.90
2825;DHT22;1420;51.324;12.344;2022-12-07T03:08:44;0.70;99.90
2825;DHT22;1420;51.324;12.344;2022-12-07T03:11:12;0.80;99.90
2825;DHT22;1420;51.324;12.344;2022-12-07T03:13:46;0.80;99.90
2825;DHT22;1420;51.324;12.344;2022-12-07T03:16:14;0.80;99.90
2825;DHT22;1420;51.324;12.344;2022-12-07T03:18:52;0.70;99.90
2825;DHT22;1420;51.324;12.344;2022-12-07T03:21:23;0.90;99.90
2825;DHT22;1420;51.324;12.344;2022-12-07T03:23:49;0.70;99.90
2825;DHT22;1420;51.324;12.344;2022-12-07T03:26:15;0.90;99.90
2825;DHT22;1420;51.324;12.344;2022-12-07T03:28:44;0.90;99.90
2825;DHT22;1420;51.324;12.344;2022-12-07T03:31:14;0.90;99.90
2825;DHT22;1420;51.324;12.344;2022-12-07T03:33:42;1.00;99.90
2825;DHT22;1420;51.324;12.344;2022-12-07T03:36:11;1.00;99.90
2825;DHT22;1420;51.324;12.344;2022-12-07T03:38:40;1.00;99.90
2825;DHT22;1420;51.324;12.344;2022-12-07T03:41:09;1.00;99.90
2825;DHT22;1420;51.324;12.344;2022-12-07T03:43:35;1.00;99.90
2825;DHT22;1420;51.324;12.344;2022-12-07T03:46:14;1.10;99.90
2825;DHT22;1420;51.324;12.344;2022-12-07T03:48:40;1.20;99.90
2825;DHT22;1420;51.324;12.344;2022-12-07T03:51:11;1.20;99.90
2825;DHT22;1420;51.324;12.344;2022-12-07T03:53:38;1.30;99.90
2825;DHT22;1420;51.324;12.344;2022-12-07T03:56:03;1.20;99.90
2825;DHT22;1420;51.324;12.344;2022-12-07T03:58:30;1.20;99.90
2825;DHT22;1420;51.324;12.344;2022-12-07T04:00:57;1.30;99.90
2825;DHT22;1420;51.324;12.344;2022-12-07T04:03:25;1.40;99.90
2825;DHT22;1420;51.324;12.344;2022-12-07T04:05:53;1.50;99.90
2825;DHT22;1420;51.324;12.344;2022-12-07T04:08:20;1.50;99.90
2825;DHT22;1420;51.324;12.344;2022-12-07T04:10:47;1.40;99.90
2825;DHT22;1420;51.324;12.344;2022-12-07T04:13:14;1.50;99.90
2825;DHT22;1420;51.324;12.344;2022-12-07T04:15:41;1.60;99.90
2825;DHT22;1420;51.324;12.344;2022-12-07T04:18:08;1.60;99.90
2825;DHT22;1420;51.324;12.344;2022-12-07T04:20:36;1.60;99.90
2825;DHT22;1420;51.324;12.344;2022-12-07T04:23:04;1.60;99.90
2825;DHT22;1420;51.324;12.344;2022-12-07T04:25:31;1.60;99.90
2825;DHT22;1420;51.324;12.344;2022-12-07T04:27:58;1.70;99.90
2825;DHT22;1420;51.324;12.344;2022-12-07T04:30:25;1.70;99.90
2825;DHT22;1420;51.324;12.344;2022-12-07T04:32:53;1.50;99.90
2825;DHT22;1420;51.324;12.344;2022-12-07T04:35:20;1.50;99.90
2825;DHT22;1420;51.324;12.344;2022-12-07T04:37:48;1.70;99.90
2825;DHT22;1420;51.324;12.344;2022-12-07T04:40:15;1.70;99.90
2825;DHT22;1420;51.324;12.344;2022-12-07T04:42:42;1.70;99.90
2825;DHT22;1420;51.324;12.344;2022-12-07T04:45:10;1.70;99.90
2825;DHT22;1420;51.324;12.344;2022-12-07T04:47:37;1.80;99.90
2825;DHT22;1420;51.324;12.344;2022-12-07T04:50:06;1.70;99.90
2825;DHT22;1420;51.324;12.344;2022-12-07T04:52:33;1.60;99.90
2825;DHT22;1420;51.324;12.344;2022-12-07T04:55:00;1.70;99.90
2825;DHT22;1420;51.324;12.344;2022-12-07T04:57:27;1.70;99.90
2825;DHT22;1420;51.324;12.344;2022-12-07T04:59:54;1.80;99.90
2825;DHT22;1420;51.324;12.344;2022-12-07T05:02:22;1.80;99.90
2825;DHT22;1420;51.324;12.344;2022-12-07T05:04:49;1.80;99.90
2825;DHT22;1420;51.324;12.344;2022-12-07T05:07:17;1.90;99.90
2825;DHT22;1420;51.324;12.344;2022-12-07T05:09:44;1.90;99.90
2825;DHT22;1420;51.324;12.344;2022-12-07T05:12:11;1.80;99.90
2825;DHT22;1420;51.324;12.344;2022-12-07T05:14:38;1.90;99.90
2825;DHT22;1420;51.324;12.344;2022-12-07T05:17:06;1.90;99.90
2825;DHT22;1420;51.324;12.344;2022-12-07T05:19:33;1.90;99.90
2825;DHT22;1420;51.324;12.344;2022-12-07T05:22:00;1.90;99.90
2825;DHT22;1420;51.324;12.344;2022-12-07T05:24:27;2.00;99.90
2825;DHT22;1420;51.324;12.344;2022-12-07T05:26:55;2.10;99.90
2825;DHT22;1420;51.324;12.344;2022-12-07T05:29:22;2.10;99.90
2825;DHT22;1420;51.324;12.344;2022-12-07T05:31:49;2.10;99.90
2825;DHT22;1420;51.324;12.344;2022-12-07T05:34:16;2.10;99.90
2825;DHT22;1420;51.324;12.344;2022-12-07T05:36:43;2.20;99.90
2825;DHT22;1420;51.324;12.344;2022-12-07T05:39:11;2.20;99.90
2825;DHT22;1420;51.324;12.344;2022-12-07T05:41:38;2.20;99.90
2825;DHT22;1420;51.324;12.344;2022-12-07T05:44:11;2.20;99.90
2825;DHT22;1420;51.324;12.344;2022-12-07T05:46:38;2.20;99.90
2825;DHT22;1420;51.324;12.344;2022-12-07T05:49:05;2.20;99.90
2825;DHT22;1420;51.324;12.344;2022-12-07T05:51:32;2.30;99.90
2825;DHT22;1420;51.324;12.344;2022-12-07T05:54:00;2.30;99.90
2825;DHT22;1420;51.324;12.344;2022-12-07T05:56:28;2.30;99.90
2825;DHT22;1420;51.324;12.344;2022-12-07T05:58:55;2.30;99.90
2825;DHT22;1420;51.324;12.344;2022-12-07T06:01:28;2.30;99.90
2825;DHT22;1420;51.324;12.344;2022-12-07T06:03:55;2.40;99.90
2825;DHT22;1420;51.324;12.344;2022-12-07T06:06:22;2.40;99.90
2825;DHT22;1420;51.324;12.344;2022-12-07T06:08:50;2.40;99.90
2825;DHT22;1420;51.324;12.344;2022-12-07T06:11:17;2.30;99.90
2825;DHT22;1420;51.324;12.344;2022-12-07T06:13:50;2.40;99.90
2825;DHT22;1420;51.324;12.344;2022-12-07T06:16:17;2.40;99.90
2825;DHT22;1420;51.324;12.344;2022-12-07T06:18:44;2.40;99.90
2825;DHT22;1420;51.324;12.344;2022-12-07T06:21:12;2.20;99.90
2825;DHT22;1420;51.324;12.344;2022-12-07T06:23:39;2.30;99.90
2825;DHT22;1420;51.324;12.344;2022-12-07T06:26:06;2.30;99.90
2825;DHT22;1420;51.324;12.344;2022-12-07T06:28:33;2.30;99.90
2825;DHT22;1420;51.324;12.344;2022-12-07T06:31:01;2.20;99.90
2825;DHT22;1420;51.324;12.344;2022-12-07T06:33:28;2.20;99.90
2825;DHT22;1420;51.324;12.344;2022-12-07T06:35:55;2.20;99.90
2825;DHT22;1420;51.324;12.344;2022-12-07T06:38:22;2.20;99.90
2825;DHT22;1420;51.324;12.344;2022-12-07T06:40:49;2.10;99.90
2825;DHT22;1420;51.324;12.344;2022-12-07T06:43:16;2.40;99.90
2825;DHT22;1420;51.324;12.344;2022-12-07T06:45:44;2.50;99.90
2825;DHT22;1420;51.324;12.344;2022-12-07T06:48:11;2.50;99.90
2825;DHT22;1420;51.324;12.344;2022-12-07T06:50:38;2.70;99.90
2825;DHT22;1420;51.324;12.344;2022-12-07T06:53:05;2.50;99.90
2825;DHT22;1420;51.324;12.344;2022-12-07T06:55:33;2.80;99.90
2825;DHT22;1420;51.324;12.344;2022-12-07T06:58:00;2.90;99.90
2825;DHT22;1420;51.324;12.344;2022-12-07T07:00:27;3.00;99.90
2825;DHT22;1420;51.324;12.344;2022-12-07T07:02:54;2.90;99.90
2825;DHT22;1420;51.324;12.344;2022-12-07T07:05:21;3.00;99.90
2825;DHT22;1420;51.324;12.344;2022-12-07T07:07:49;3.00;99.90
2825;DHT22;1420;51.324;12.344;2022-12-07T07:10:16;3.10;99.90
2825;DHT22;1420;51.324;12.344;2022-12-07T07:12:43;3.20;99.90
2825;DHT22;1420;51.324;12.344;2022-12-07T07:15:10;3.40;99.90
2825;DHT22;1420;51.324;12.344;2022-12-07T07:17:37;3.30;99.90
2825;DHT22;1420;51.324;12.344;2022-12-07T07:20:05;3.30;99.90
2825;DHT22;1420;51.324;12.344;2022-12-07T07:22:33;3.50;99.90
2825;DHT22;1420;51.324;12.344;2022-12-07T07:25:01;3.40;99.90
2825;DHT22;1420;51.324;12.344;2022-12-07T07:27:29;3.50;99.90
2825;DHT22;1420;51.324;12.344;2022-12-07T07:29:57;3.40;99.90
2825;DHT22;1420;51.324;12.344;2022-12-07T07:32:24;3.40;99.90
2825;DHT22;1420;51.324;12.344;2022-12-07T07:34:51;3.40;99.90
2825;DHT22;1420;51.324;12.344;2022-12-07T07:37:19;3.30;99.90
2825;DHT22;1420;51.324;12.344;2022-12-07T07:39:47;3.40;99.90
2825;DHT22;1420;51.324;12.344;2022-12-07T07:42:15;3.40;99.90
2825;DHT22;1420;51.324;12.344;2022-12-07T07:44:42;3.70;99.90
2825;DHT22;1420;51.324;12.344;2022-12-07T07:47:09;3.40;99.90
2825;DHT22;1420;51.324;12.344;2022-12-07T07:49:37;3.70;99.90
2825;DHT22;1420;51.324;12.344;2022-12-07T07:52:05;3.70;99.90
2825;DHT22;1420;51.324;12.344;2022-12-07T07:54:32;3.90;99.90
2825;DHT22;1420;51.324;12.344;2022-12-07T07:57:00;4.10;99.90
2825;DHT22;1420;51.324;12.344;2022-12-07T07:59:27;4.10;99.90
2825;DHT22;1420;51.324;12.344;2022-12-07T08:01:55;3.90;99.90
2825;DHT22;1420;51.324;12.344;2022-12-07T08:04:23;3.80;99.90
2825;DHT22;1420;51.324;12.344;2022-12-07T08:06:50;3.80;99.90
2825;DHT22;1420;51.324;12.344;2022-12-07T08:09:17;3.70;99.90
2825;DHT22;1420;51.324;12.344;2022-12-07T08:11:45;3.60;99.90
2825;DHT22;1420;51.324;12.344;2022-12-07T08:14:12;3.40;99.90
2825;DHT22;1420;51.324;12.344;2022-12-07T08:16:40;3.40;99.90
2825;DHT22;1420;51.324;12.344;2022-12-07T08:19:07;3.20;99.90
2825;DHT22;1420;51.324;12.344;2022-12-07T08:21:36;3.20;99.90
2825;DHT22;1420;51.324;12.344;2022-12-07T08:24:03;3.10;99.90
2825;DHT22;1420;51.324;12.344;2022-12-07T08:26:30;3.20;99.90
2825;DHT22;1420;51.324;12.344;2022-12-07T08:28:58;3.20;99.90
2825;DHT22;1420;51.324;12.344;2022-12-07T08:31:25;3.30;99.90
2825;DHT22;1420;51.324;12.344;2022-12-07T08:33:52;3.30;99.90
2825;DHT22;1420;51.324;12.344;2022-12-07T08:36:19;3.30;99.90
2825;DHT22;1420;51.324;12.344;2022-12-07T08:38:47;3.50;99.90
2825;DHT22;1420;51.324;12.344;2022-12-07T08:41:15;3.70;99.90
2825;DHT22;1420;51.324;12.344;2022-12-07T08:43:43;3.90;99.90
2825;DHT22;1420;51.324;12.344;2022-12-07T08:46:12;3.80;99.90
2825;DHT22;1420;51.324;12.344;2022-12-07T08:48:41;4.00;99.90
2825;DHT22;1420;51.324;12.344;2022-12-07T08:51:08;4.20;99.90
2825;DHT22;1420;51.324;12.344;2022-12-07T08:53:36;4.10;99.90
2825;DHT22;1420;51.324;12.344;2022-12-07T08:56:03;4.10;99.90
2825;DHT22;1420;51.324;12.344;2022-12-07T08:58:32;4.10;99.90
2825;DHT22;1420;51.324;12.344;2022-12-07T09:00:59;4.00;99.90
2825;DHT22;1420;51.324;12.344;2022-12-07T09:03:26;3.90;99.90
2825;DHT22;1420;51.324;12.344;2022-12-07T09:05:54;4.00;99.90
2825;DHT22;1420;51.324;12.344;2022-12-07T09:08:21;4.00;99.90
2825;DHT22;1420;51.324;12.344;2022-12-07T09:10:48;4.00;99.90
2825;DHT22;1420;51.324;12.344;2022-12-07T09:13:15;4.10;99.90
2825;DHT22;1420;51.324;12.344;2022-12-07T09:15:42;4.10;99.90
2825;DHT22;1420;51.324;12.344;2022-12-07T09:18:10;4.10;99.90
2825;DHT22;1420;51.324;12.344;2022-12-07T09:20:37;4.20;99.90
2825;DHT22;1420;51.324;12.344;2022-12-07T09:23:06;4.20;99.90
2825;DHT22;1420;51.324;12.344;2022-12-07T09:25:32;4.20;99.90
2825;DHT22;1420;51.324;12.344;2022-12-07T09:27:59;4.20;99.90
2825;DHT22;1420;51.324;12.344;2022-12-07T09:30:27;4.10;99.90
2825;DHT22;1420;51.324;12.344;2022-12-07T09:32:54;4.10;99.90
2825;DHT22;1420;51.324;12.344;2022-12-07T09:35:21;4.00;99.90
2825;DHT22;1420;51.324;12.344;2022-12-07T09:37:48;4.10;99.90
2825;DHT22;1420;51.324;12.344;2022-12-07T09:40:16;4.30;99.90
2825;DHT22;1420;51.324;12.344;2022-12-07T09:42:44;4.10;99.90
2825;DHT22;1420;51.324;12.344;2022-12-07T09:45:13;4.00;99.90
2825;DHT22;1420;51.324;12.344;2022-12-07T09:47:40;4.00;99.90
2825;DHT22;1420;51.324;12.344;2022-12-07T09:50:13;4.00;99.90
2825;DHT22;1420;51.324;12.344;2022-12-07T09:52:40;4.00;99.90
2825;DHT22;1420;51.324;12.344;2022-12-07T09:55:10;4.00;99.90
2825;DHT22;1420;51.324;12.344;2022-12-07T09:57:36;4.10;99.90
2825;DHT22;1420;51.324;12.344;2022-12-07T10:00:06;4.20;99.90
2825;DHT22;1420;51.324;12.344;2022-12-07T10:02:39;4.20;99.90
2825;DHT22;1420;51.324;12.344;2022-12-07T10:05:06;4.30;99.90
2825;DHT22;1420;51.324;12.344;2022-12-07T10:07:33;4.30;99.90
2825;DHT22;1420;51.324;12.344;2022-12-07T10:10:02;4.30;99.90
2825;DHT22;1420;51.324;12.344;2022-12-07T10:12:28;4.30;99.90
2825;DHT22;1420;51.324;12.344;2022-12-07T10:14:56;4.30;99.90
2825;DHT22;1420;51.324;12.344;2022-12-07T10:17:37;4.30;99.90
2825;DHT22;1420;51.324;12.344;2022-12-07T10:20:16;4.50;99.90
2825;DHT22;1420;51.324;12.344;2022-12-07T10:22:58;4.50;99.90
2825;DHT22;1420;51.324;12.344;2022-12-07T10:25:27;4.60;99.90
2825;DHT22;1420;51.324;12.344;2022-12-07T10:27:57;4.50;99.90
2825;DHT22;1420;51.324;12.344;2022-12-07T10:30:24;4.60;99.90
2825;DHT22;1420;51.324;12.344;2022-12-07T10:32:54;4.70;99.90
2825;DHT22;1420;51.324;12.344;2022-12-07T10:35:28;4.70;99.90
2825;DHT22;1420;51.324;12.344;2022-12-07T10:37:56;4.60;99.90
2825;DHT22;1420;51.324;12.344;2022-12-07T10:43:18;4.50;99.90
2825;DHT22;1420;51.324;12.344;2022-12-07T10:46:09;4.50;99.90
2825;DHT22;1420;51.324;12.344;2022-12-07T10:48:35;4.50;99.90
2825;DHT22;1420;51.324;12.344;2022-12-07T10:51:07;4.40;99.90
2825;DHT22;1420;51.324;12.344;2022-12-07T10:54:00;4.50;99.90
2825;DHT22;1420;51.324;12.344;2022-12-07T10:56:34;4.60;99.90
2825;DHT22;1420;51.324;12.344;2022-12-07T10:59:18;4.60;99.90
2825;DHT22;1420;51.324;12.344;2022-12-07T11:01:57;4.40;99.90
2825;DHT22;1420;51.324;12.344;2022-12-07T11:04:27;4.50;99.90
2825;DHT22;1420;51.324;12.344;2022-12-07T11:06:57;4.60;99.90
2825;DHT22;1420;51.324;12.344;2022-12-07T11:09:48;4.50;99.90
2825;DHT22;1420;51.324;12.344;2022-12-07T11:12:38;4.20;99.90
2825;DHT22;1420;51.324;12.344;2022-12-07T11:15:14;4.10;99.90
2825;DHT22;1420;51.324;12.344;2022-12-07T11:17:59;4.20;99.90
2825;DHT22;1420;51.324;12.344;2022-12-07T11:20:35;4.20;99.90
2825;DHT22;1420;51.324;12.344;2022-12-07T11:23:03;4.20;99.90
2825;DHT22;1420;51.324;12.344;2022-12-07T11:25:32;4.10;99.90
2825;DHT22;1420;51.324;12.344;2022-12-07T11:28:06;4.20;99.90
2825;DHT22;1420;51.324;12.344;2022-12-07T11:34:06;4.30;99.90
2825;DHT22;1420;51.324;12.344;2022-12-07T11:36:37;4.20;99.90
2825;DHT22;1420;51.324;12.344;2022-12-07T11:39:39;4.30;99.90
2825;DHT22;1420;51.324;12.344;2022-12-07T11:41:47;4.40;99.90
2825;DHT22;1420;51.324;12.344;2022-12-07T11:47:09;4.40;99.90
2825;DHT22;1420;51.324;12.344;2022-12-07T11:49:42;4.40;99.90
2825;DHT22;1420;51.324;12.344;2022-12-07T11:52:15;4.40;99.90
2825;DHT22;1420;51.324;12.344;2022-12-07T11:54:40;4.40;99.90
2825;DHT22;1420;51.324;12.344;2022-12-07T11:57:08;4.50;99.90
2825;DHT22;1420;51.324;12.344;2022-12-07T11:59:38;4.50;99.90
2825;DHT22;1420;51.324;12.344;2022-12-07T12:02:20;4.50;99.90
2825;DHT22;1420;51.324;12.344;2022-12-07T12:05:18;4.60;99.90
2825;DHT22;1420;51.324;12.344;2022-12-07T12:07:27;4.70;99.90
2825;DHT22;1420;51.324;12.344;2022-12-07T12:09:57;4.70;99.90
2825;DHT22;1420;51.324;12.344;2022-12-07T12:12:31;4.70;99.90
2825;DHT22;1420;51.324;12.344;2022-12-07T12:15:38;4.70;99.90
2825;DHT22;1420;51.324;12.344;2022-12-07T12:17:53;4.80;99.90
2825;DHT22;1420;51.324;12.344;2022-12-07T12:20:40;4.80;99.90
2825;DHT22;1420;51.324;12.344;2022-12-07T12:23:07;4.90;99.90
2825;DHT22;1420;51.324;12.344;2022-12-07T12:25:37;4.90;99.90
2825;DHT22;1420;51.324;12.344;2022-12-07T12:28:03;5.00;99.90
2825;DHT22;1420;51.324;12.344;2022-12-07T12:30:36;5.00;99.90
2825;DHT22;1420;51.324;12.344;2022-12-07T12:33:04;4.90;99.90
2825;DHT22;1420;51.324;12.344;2022-12-07T12:35:32;5.00;99.90
2825;DHT22;1420;51.324;12.344;2022-12-07T12:40:38;5.20;99.90
2825;DHT22;1420;51.324;12.344;2022-12-07T12:43:21;5.10;99.90
2825;DHT22;1420;51.324;12.344;2022-12-07T12:45:33;5.10;99.90
2825;DHT22;1420;51.324;12.344;2022-12-07T12:48:02;5.10;99.90
2825;DHT22;1420;51.324;12.344;2022-12-07T12:50:32;5.10;99.90
2825;DHT22;1420;51.324;12.344;2022-12-07T12:53:12;5.00;99.90
2825;DHT22;1420;51.324;12.344;2022-12-07T12:55:48;5.00;99.90
2825;DHT22;1420;51.324;12.344;2022-12-07T13:03:29;4.90;99.90
2825;DHT22;1420;51.324;12.344;2022-12-07T13:06:34;4.90;99.90
2825;DHT22;1420;51.324;12.344;2022-12-07T13:08:59;5.00;99.90
2825;DHT22;1420;51.324;12.344;2022-12-07T13:11:29;5.00;99.90
2825;DHT22;1420;51.324;12.344;2022-12-07T13:16:37;5.10;99.90
2825;DHT22;1420;51.324;12.344;2022-12-07T13:19:25;5.10;99.90
2825;DHT22;1420;51.324;12.344;2022-12-07T13:21:45;5.10;99.90
2825;DHT22;1420;51.324;12.344;2022-12-07T13:24:13;5.10;99.90
2825;DHT22;1420;51.324;12.344;2022-12-07T13:26:41;5.00;99.90
2825;DHT22;1420;51.324;12.344;2022-12-07T13:29:13;5.10;99.90
2825;DHT22;1420;51.324;12.344;2022-12-07T13:34:38;5.10;99.90
2825;DHT22;1420;51.324;12.344;2022-12-07T13:37:24;5.10;99.90
2825;DHT22;1420;51.324;12.344;2022-12-07T13:39:45;5.10;99.90
2825;DHT22;1420;51.324;12.344;2022-12-07T13:42:46;5.10;99.90
2825;DHT22;1420;51.324;12.344;2022-12-07T13:44:57;5.00;99.90
2825;DHT22;1420;51.324;12.344;2022-12-07T13:47:31;5.00;99.90
2825;DHT22;1420;51.324;12.344;2022-12-07T13:49:54;5.00;99.90
2825;DHT22;1420;51.324;12.344;2022-12-07T13:52:25;5.10;99.90
2825;DHT22;1420;51.324;12.344;2022-12-07T13:54:56;5.00;99.90
2825;DHT22;1420;51.324;12.344;2022-12-07T13:57:24;4.90;99.90
2825;DHT22;1420;51.324;12.344;2022-12-07T13:59:50;4.80;99.90
2825;DHT22;1420;51.324;12.344;2022-12-07T14:02:21;4.80;99.90
2825;DHT22;1420;51.324;12.344;2022-12-07T14:04:49;4.80;99.90
2825;DHT22;1420;51.324;12.344;2022-12-07T14:07:19;4.70;99.90
2825;DHT22;1420;51.324;12.344;2022-12-07T14:09:54;4.70;99.90
2825;DHT22;1420;51.324;12.344;2022-12-07T14:12:20;4.60;99.90
2825;DHT22;1420;51.324;12.344;2022-12-07T14:14:47;4.60;99.90
2825;DHT22;1420;51.324;12.344;2022-12-07T14:17:19;4.50;99.90
2825;DHT22;1420;51.324;12.344;2022-12-07T14:19:47;4.50;99.90
2825;DHT22;1420;51.324;12.344;2022-12-07T14:22:20;4.50;99.90
2825;DHT22;1420;51.324;12.344;2022-12-07T14:24:46;4.50;99.90
2825;DHT22;1420;51.324;12.344;2022-12-07T14:27:21;4.50;99.90
2825;DHT22;1420;51.324;12.344;2022-12-07T14:29:47;4.40;99.90
2825;DHT22;1420;51.324;12.344;2022-12-07T14:32:22;4.40;99.90
2825;DHT22;1420;51.324;12.344;2022-12-07T14:34:57;4.40;99.90
2825;DHT22;1420;51.324;12.344;2022-12-07T14:37:24;4.30;99.90
2825;DHT22;1420;51.324;12.344;2022-12-07T14:39:51;4.30;99.90
2825;DHT22;1420;51.324;12.344;2022-12-07T14:42:18;4.30;99.90
2825;DHT22;1420;51.324;12.344;2022-12-07T14:44:45;4.30;99.90
2825;DHT22;1420;51.324;12.344;2022-12-07T14:47:12;4.20;99.90
2825;DHT22;1420;51.324;12.344;2022-12-07T14:49:39;4.20;99.90
2825;DHT22;1420;51.324;12.344;2022-12-07T14:52:09;4.20;99.90
2825;DHT22;1420;51.324;12.344;2022-12-07T14:54:34;4.20;99.90
2825;DHT22;1420;51.324;12.344;2022-12-07T14:57:01;4.10;99.90
2825;DHT22;1420;51.324;12.344;2022-12-07T14:59:28;4.10;99.90
2825;DHT22;1420;51.324;12.344;2022-12-07T15:01:55;4.10;99.90
2825;DHT22;1420;51.324;12.344;2022-12-07T15:04:23;4.10;99.90
2825;DHT22;1420;51.324;12.344;2022-12-07T15:06:56;4.10;99.90
2825;DHT22;1420;51.324;12.344;2022-12-07T15:09:23;4.10;99.90
2825;DHT22;1420;51.324;12.344;2022-12-07T15:11:50;4.00;99.90
2825;DHT22;1420;51.324;12.344;2022-12-07T15:14:17;4.00;99.90
2825;DHT22;1420;51.324;12.344;2022-12-07T15:16:44;4.00;99.90
2825;DHT22;1420;51.324;12.344;2022-12-07T15:19:16;4.00;99.90
2825;DHT22;1420;51.324;12.344;2022-12-07T15:21:41;4.00;99.90
2825;DHT22;1420;51.324;12.344;2022-12-07T15:24:10;3.90;99.90
2825;DHT22;1420;51.324;12.344;2022-12-07T15:26:37;3.90;99.90
2825;DHT22;1420;51.324;12.344;2022-12-07T15:29:04;3.90;99.90
2825;DHT22;1420;51.324;12.344;2022-12-07T15:31:32;3.90;99.90
2825;DHT22;1420;51.324;12.344;2022-12-07T15:33:58;4.00;99.90
2825;DHT22;1420;51.324;12.344;2022-12-07T15:36:27;4.00;99.90
2825;DHT22;1420;51.324;12.344;2022-12-07T15:38:53;4.00;99.90
2825;DHT22;1420;51.324;12.344;2022-12-07T15:41:21;4.00;99.90
2825;DHT22;1420;51.324;12.344;2022-12-07T15:43:48;3.90;99.90
2825;DHT22;1420;51.324;12.344;2022-12-07T15:46:21;4.00;99.90
2825;DHT22;1420;51.324;12.344;2022-12-07T15:48:48;4.00;99.90
2825;DHT22;1420;51.324;12.344;2022-12-07T15:51:16;4.00;99.90
2825;DHT22;1420;51.324;12.344;2022-12-07T15:53:43;4.10;99.90
2825;DHT22;1420;51.324;12.344;2022-12-07T15:56:10;4.00;99.90
2825;DHT22;1420;51.324;12.344;2022-12-07T15:58:37;4.10;99.90
2825;DHT22;1420;51.324;12.344;2022-12-07T16:01:13;4.00;99.90
2825;DHT22;1420;51.324;12.344;2022-12-07T16:03:39;4.00;99.90
2825;DHT22;1420;51.324;12.344;2022-12-07T16:06:07;4.00;99.90
2825;DHT22;1420;51.324;12.344;2022-12-07T16:08:34;4.00;99.90
2825;DHT22;1420;51.324;12.344;2022-12-07T16:11:05;4.10;99.90
2825;DHT22;1420;51.324;12.344;2022-12-07T16:13:32;4.00;99.90
2825;DHT22;1420;51.324;12.344;2022-12-07T16:16:03;4.00;99.90
2825;DHT22;1420;51.324;12.344;2022-12-07T16:18:29;3.70;99.90
2825;DHT22;1420;51.324;12.344;2022-12-07T16:20:56;3.20;99.90
2825;DHT22;1420;51.324;12.344;2022-12-07T16:23:23;2.90;99.90
2825;DHT22;1420;51.324;12.344;2022-12-07T16:25:51;2.80;99.90
2825;DHT22;1420;51.324;12.344;2022-12-07T16:28:18;2.80;99.90
2825;DHT22;1420;51.324;12.344;2022-12-07T16:30:45;2.80;99.90
2825;DHT22;1420;51.324;12.344;2022-12-07T16:33:12;2.80;99.90
2825;DHT22;1420;51.324;12.344;2022-12-07T16:35:40;2.80;99.90
2825;DHT22;1420;51.324;12.344;2022-12-07T16:38:07;2.90;99.90